Shirts

$15.99$17.99

Show your aviation enthusiasm with this classic fit 100% preshrunk cotton t-shirt.

Clear
SKU: N/A Categories: ,

Description

Show your aviation enthusiasm and appreciation for Flight Instructors with a clever and stylish T-Shirt. This T-Shirt ingeniously shows your unique skills as a savvy pilot. The message is a clever take on the saying: “If you can read this, Thank a Teacher,” by adding: “If you can read this: KGNV 081654Z 32007KT 10SM BKN065 15/08 A2992 Thank a Flight Instructor.”

Look good and feel great with this durable yet ultra-soft lightweight fabric made of 100% preshrunk cotton.

Additional information

Size

Small, Medium, Large, X-Large, 2X-Large, 3X-Large

Color

Black, Gray